West Plattsburgh, New York
Current Conditions -  °F | °C
As of 7:29 AM on Sunday 21 Dec 2014 (Local Time) from KPBG Reporting Station
Haze Haze  
Wind Chill: 11°   Ceiling: 400
Heat Index: 18°   Visibility: 5mi
Dew Point: 16°   Wind: 5mph
Humidity: 92%   Direction: 330°NNW
Pressure: 30.36"   Gusts: NA
Location:  44.6612°N, 73.5979°W
Report Text: KPBG 211229Z AUTO 33004KT 5SM BR OVC004 M08/M09 A3036 RMK AO2 T10781089
Loading
Personal Weather Stations






























Interactive Weather Map New forecast layout! Learn more

10-Day Weather Forecast

Advertisements
Track Severe Weather on mobile